createdAt,value
2019-06-10T00:01:35.505Z,99.10
2019-06-10T00:04:08.425Z,99.20
2019-06-10T00:06:36.463Z,99.40
2019-06-10T00:09:08.177Z,99.60
2019-06-10T00:11:37.663Z,99.50
2019-06-10T00:14:07.470Z,99.60
2019-06-10T00:16:37.162Z,99.60
2019-06-10T00:19:09.389Z,99.80
2019-06-10T00:21:38.303Z,99.90
2019-06-10T00:24:08.593Z,99.90
2019-06-10T00:26:38.349Z,99.90
2019-06-10T00:29:09.037Z,99.90
2019-06-10T00:31:38.786Z,99.90
2019-06-10T00:34:09.317Z,99.90
2019-06-10T00:36:41.349Z,99.90
2019-06-10T00:39:13.458Z,99.90
2019-06-10T00:41:42.877Z,99.90
2019-06-10T00:44:12.854Z,99.90
2019-06-10T00:46:42.349Z,99.90
2019-06-10T00:49:14.592Z,99.80
2019-06-10T00:51:43.416Z,99.80
2019-06-10T00:54:15.419Z,99.70
2019-06-10T00:56:44.436Z,99.30
2019-06-10T00:59:15.328Z,99.20
2019-06-10T01:01:45.174Z,99.40
2019-06-10T01:04:16.377Z,99.20
2019-06-10T01:06:45.828Z,99.20
2019-06-10T01:09:15.195Z,99.70
2019-06-10T01:11:44.912Z,99.60
2019-06-10T01:14:15.589Z,99.20
2019-06-10T01:16:44.989Z,99.20
2019-06-10T01:19:15.831Z,99.50
2019-06-10T01:21:45.468Z,99.50
2019-06-10T01:24:14.895Z,99.50
2019-06-10T01:26:44.325Z,99.80
2019-06-10T01:29:15.472Z,99.40
2019-06-10T01:31:45.010Z,99.40
2019-06-10T01:34:15.179Z,99.20
2019-06-10T01:36:44.657Z,99.70
2019-06-10T01:39:15.182Z,99.30
2019-06-10T01:41:45.062Z,99.10
2019-06-10T01:44:16.076Z,99.30
2019-06-10T01:46:45.796Z,99.50
2019-06-10T01:49:16.757Z,99.60
2019-06-10T01:51:46.533Z,99.90
2019-06-10T01:54:17.117Z,99.30
2019-06-10T01:56:47.407Z,99.10
2019-06-10T01:59:16.992Z,99.10
2019-06-10T02:02:00.778Z,99.10
2019-06-10T02:04:31.762Z,98.90
2019-06-10T02:07:01.302Z,99.10
2019-06-10T02:09:31.507Z,99.10
2019-06-10T02:12:02.177Z,99.50
2019-06-10T02:14:32.011Z,99.70
2019-06-10T02:17:01.762Z,99.70
2019-06-10T02:19:31.422Z,99.90
2019-06-10T02:22:01.258Z,99.90
2019-06-10T02:24:31.694Z,99.90
2019-06-10T02:27:01.517Z,99.90
2019-06-10T02:29:31.014Z,99.90
2019-06-10T02:32:04.450Z,99.90
2019-06-10T02:34:36.553Z,99.90
2019-06-10T02:37:04.807Z,99.60
2019-06-10T02:39:38.712Z,99.90
2019-06-10T02:42:14.814Z,99.90
2019-06-10T02:44:44.592Z,99.90
2019-06-10T02:47:16.055Z,99.90
2019-06-10T02:49:56.885Z,99.90
2019-06-10T02:52:20.081Z,99.90
2019-06-10T02:54:49.068Z,99.90
2019-06-10T02:57:25.739Z,99.90
2019-06-10T02:59:53.537Z,99.90
2019-06-10T03:02:23.723Z,99.90
2019-06-10T03:04:53.540Z,99.90
2019-06-10T03:07:26.750Z,99.90
2019-06-10T03:09:54.219Z,99.90
2019-06-10T03:12:25.762Z,99.90
2019-06-10T03:14:55.108Z,99.90
2019-06-10T03:17:26.285Z,99.90
2019-06-10T03:19:56.056Z,99.90
2019-06-10T03:22:25.947Z,99.90
2019-06-10T03:24:55.743Z,99.90
2019-06-10T03:27:26.596Z,99.90
2019-06-10T03:29:56.708Z,99.90
2019-06-10T03:32:33.184Z,99.90
2019-06-10T03:34:57.116Z,99.90
2019-06-10T03:37:27.711Z,99.90
2019-06-10T03:39:57.071Z,99.90
2019-06-10T03:42:28.065Z,99.90
2019-06-10T03:44:57.680Z,99.90
2019-06-10T03:47:28.496Z,99.90
2019-06-10T03:49:58.523Z,99.90
2019-06-10T03:52:28.590Z,99.90
2019-06-10T03:54:58.089Z,99.90
2019-06-10T03:57:28.673Z,99.90
2019-06-10T03:59:58.405Z,99.90
2019-06-10T04:02:28.526Z,99.90
2019-06-10T04:04:58.320Z,99.90
2019-06-10T04:07:30.943Z,99.90
2019-06-10T04:09:59.084Z,99.90
2019-06-10T04:12:29.194Z,99.90
2019-06-10T04:14:58.653Z,99.90
2019-06-10T04:17:28.784Z,99.90
2019-06-10T04:20:09.375Z,99.90
2019-06-10T04:22:29.666Z,99.90
2019-06-10T04:24:59.038Z,99.90
2019-06-10T04:27:28.555Z,99.90
2019-06-10T04:29:57.947Z,99.90
2019-06-10T04:32:27.844Z,99.90
2019-06-10T04:34:58.398Z,99.90
2019-06-10T04:37:28.155Z,99.90
2019-06-10T04:39:58.848Z,99.90
2019-06-10T04:42:28.967Z,99.90
2019-06-10T04:44:58.496Z,99.90
2019-06-10T04:47:29.272Z,99.90
2019-06-10T04:49:59.045Z,99.90
2019-06-10T04:52:29.787Z,99.90
2019-06-10T04:55:02.292Z,99.80
2019-06-10T04:57:32.820Z,99.40
2019-06-10T05:00:07.008Z,99.80
2019-06-10T05:02:33.345Z,99.80
2019-06-10T05:05:03.109Z,99.90
2019-06-10T05:07:36.809Z,99.90
2019-06-10T05:10:04.728Z,99.90
2019-06-10T05:12:34.088Z,99.90
2019-06-10T05:15:03.717Z,99.90
2019-06-10T05:17:34.369Z,99.90
2019-06-10T05:20:04.068Z,99.90
2019-06-10T05:22:33.531Z,99.90
2019-06-10T05:25:02.982Z,99.90
2019-06-10T05:27:33.055Z,99.90
2019-06-10T05:30:02.600Z,99.90
2019-06-10T05:32:33.357Z,99.90
2019-06-10T05:35:03.548Z,99.90
2019-06-10T05:37:33.862Z,99.90
2019-06-10T05:40:03.911Z,99.90
2019-06-10T05:42:35.578Z,99.90
2019-06-10T05:45:05.959Z,99.90
2019-06-10T05:47:36.057Z,99.90
2019-06-10T05:50:06.735Z,99.70
2019-06-10T05:52:36.086Z,99.90
2019-06-10T05:55:06.061Z,99.90
2019-06-10T05:57:35.729Z,99.90
2019-06-10T06:00:11.271Z,99.90
2019-06-10T06:02:38.748Z,99.70
2019-06-10T06:05:08.448Z,99.90
2019-06-10T06:07:37.820Z,99.90
2019-06-10T06:10:07.723Z,99.90
2019-06-10T06:12:37.868Z,99.90
2019-06-10T06:15:07.507Z,99.90
2019-06-10T06:17:36.966Z,99.90
2019-06-10T06:20:07.257Z,99.90
2019-06-10T06:22:37.764Z,99.90
2019-06-10T06:25:07.778Z,99.90
2019-06-10T06:27:38.225Z,99.90
2019-06-10T06:30:14.728Z,99.90
2019-06-10T06:32:40.456Z,99.90
2019-06-10T06:35:12.500Z,99.90
2019-06-10T06:37:42.823Z,99.90
2019-06-10T06:40:13.365Z,99.90
2019-06-10T06:42:43.419Z,99.90
2019-06-10T06:45:13.013Z,99.90
2019-06-10T06:47:43.682Z,99.90
2019-06-10T06:50:15.052Z,99.90
2019-06-10T06:53:15.710Z,99.90
2019-06-10T06:55:15.880Z,99.90
2019-06-10T06:57:45.614Z,99.90
2019-06-10T07:00:38.705Z,99.70
2019-06-10T07:02:46.823Z,99.40
2019-06-10T07:05:16.202Z,99.20
2019-06-10T07:07:45.891Z,99.10
2019-06-10T07:10:15.482Z,98.70
2019-06-10T07:12:45.567Z,98.40
2019-06-10T07:15:15.003Z,98.00
2019-06-10T07:17:45.596Z,97.90
2019-06-10T07:20:15.479Z,96.40
2019-06-10T07:22:46.593Z,95.60
2019-06-10T07:25:16.477Z,96.10
2019-06-10T07:27:46.965Z,94.50
2019-06-10T07:30:16.566Z,94.10
2019-06-10T07:32:47.445Z,94.60
2019-06-10T07:35:17.391Z,94.60
2019-06-10T07:37:47.272Z,93.20
2019-06-10T07:40:17.724Z,92.00
2019-06-10T07:42:47.219Z,91.70
2019-06-10T07:45:17.840Z,90.20
2019-06-10T07:47:47.915Z,88.50
2019-06-10T07:50:17.695Z,85.70
2019-06-10T07:52:47.072Z,85.90
2019-06-10T07:55:16.994Z,82.20
2019-06-10T07:57:46.686Z,79.50
2019-06-10T08:00:16.891Z,79.50
2019-06-10T08:02:46.687Z,79.10
2019-06-10T08:05:16.668Z,80.30
2019-06-10T08:07:48.837Z,84.40
2019-06-10T08:10:18.703Z,82.20
2019-06-10T08:12:48.482Z,83.10
2019-06-10T08:15:18.236Z,82.90
2019-06-10T08:17:48.232Z,83.00
2019-06-10T08:20:39.087Z,81.60
2019-06-10T08:23:08.877Z,80.70
2019-06-10T08:25:40.399Z,80.40
2019-06-10T08:28:09.940Z,79.10
2019-06-10T08:30:39.793Z,77.80
2019-06-10T08:33:13.547Z,79.00
2019-06-10T08:35:48.569Z,78.80
2019-06-10T08:38:13.321Z,79.00
2019-06-10T08:40:45.312Z,78.30
2019-06-10T08:43:14.430Z,78.50
2019-06-10T08:45:45.825Z,79.20
2019-06-10T08:48:14.915Z,80.30
2019-06-10T08:50:46.536Z,80.40
2019-06-10T08:53:18.094Z,79.40
2019-06-10T08:55:49.308Z,78.70
2019-06-10T08:58:18.268Z,78.80
2019-06-10T09:00:49.469Z,79.70
2019-06-10T09:03:19.521Z,80.50
2019-06-10T09:05:51.023Z,80.70
2019-06-10T09:08:23.520Z,82.80
2019-06-10T09:10:55.089Z,83.00
2019-06-10T09:13:24.375Z,82.20
2019-06-10T09:16:10.480Z,81.80
2019-06-10T09:18:25.648Z,82.80
2019-06-10T09:20:56.160Z,82.70
2019-06-10T09:23:26.278Z,81.30
2019-06-10T09:25:57.428Z,82.60
2019-06-10T09:28:27.664Z,82.90
2019-06-10T09:30:59.099Z,82.70
2019-06-10T09:33:29.097Z,84.00
2019-06-10T09:35:59.100Z,84.00
2019-06-10T09:38:29.006Z,84.90
2019-06-10T09:41:01.857Z,87.20
2019-06-10T09:43:32.994Z,87.10
2019-06-10T09:46:03.510Z,86.50
2019-06-10T09:48:33.804Z,83.80
2019-06-10T09:51:03.542Z,81.50
2019-06-10T09:53:42.384Z,81.60
2019-06-10T09:56:04.662Z,80.90
2019-06-10T09:58:34.017Z,83.20
2019-06-10T10:01:03.752Z,83.50
2019-06-10T10:03:33.356Z,82.70
2019-06-10T10:06:11.509Z,81.80
2019-06-10T10:08:34.892Z,81.50
2019-06-10T10:11:04.294Z,80.70
2019-06-10T10:13:35.540Z,80.10
2019-06-10T10:16:05.597Z,75.20
2019-06-10T10:18:35.585Z,76.20
2019-06-10T10:21:05.047Z,75.20
2019-06-10T10:23:50.366Z,72.30
2019-06-10T10:26:05.564Z,70.50
2019-06-10T10:28:35.214Z,68.90
2019-06-10T10:31:05.090Z,66.50
2019-06-10T10:33:34.580Z,64.20
2019-06-10T10:36:03.933Z,59.80
2019-06-10T10:38:34.836Z,59.40
2019-06-10T10:41:04.884Z,58.30
2019-06-10T10:43:37.591Z,59.30
2019-06-10T10:46:05.972Z,60.50
2019-06-10T10:48:35.817Z,60.50
2019-06-10T10:51:05.517Z,58.90
2019-06-10T10:53:35.301Z,58.50
2019-06-10T10:56:04.756Z,55.90
2019-06-10T10:58:34.148Z,58.10
2019-06-10T11:01:04.901Z,58.40
2019-06-10T11:03:34.520Z,57.70
2019-06-10T11:06:03.904Z,57.40
2019-06-10T11:08:33.961Z,57.30
2019-06-10T11:11:05.071Z,56.80
2019-06-10T11:13:36.642Z,56.90
2019-06-10T11:16:06.053Z,56.70
2019-06-10T11:18:35.990Z,59.00
2019-06-10T11:21:05.466Z,56.20
2019-06-10T11:23:34.854Z,54.60
2019-06-10T11:26:04.192Z,55.40
2019-06-10T11:28:33.939Z,54.80
2019-06-10T11:31:03.963Z,55.60
2019-06-10T11:33:33.784Z,56.60
2019-06-10T11:36:03.292Z,57.20
2019-06-10T11:38:33.144Z,57.00
2019-06-10T11:41:02.989Z,61.20
2019-06-10T11:43:33.246Z,67.20
2019-06-10T11:46:07.093Z,72.10
2019-06-10T11:48:34.282Z,76.30
2019-06-10T11:51:06.597Z,76.20
2019-06-10T11:53:36.020Z,78.80
2019-06-10T11:56:06.091Z,83.50
2019-06-10T11:58:35.475Z,83.60
2019-06-10T12:01:05.774Z,83.70
2019-06-10T12:03:35.303Z,83.80
2019-06-10T12:06:05.753Z,82.40
2019-06-10T12:08:35.778Z,81.10
2019-06-10T12:11:05.362Z,83.40
2019-06-10T12:13:35.054Z,82.70
2019-06-10T12:16:51.555Z,80.70
2019-06-10T12:18:36.013Z,84.00
2019-06-10T12:21:05.419Z,80.10
2019-06-10T12:23:34.835Z,82.70
2019-06-10T12:26:05.152Z,80.10
2019-06-10T12:28:35.392Z,82.00
2019-06-10T12:31:07.007Z,80.00
2019-06-10T12:33:35.853Z,81.50
2019-06-10T12:36:07.124Z,79.00
2019-06-10T12:38:37.060Z,79.20
2019-06-10T12:41:09.557Z,78.40
2019-06-10T12:43:37.573Z,77.00
2019-06-10T12:46:07.070Z,72.80
2019-06-10T12:48:36.482Z,70.60
2019-06-10T12:51:09.362Z,72.80
2019-06-10T12:53:36.871Z,71.30
2019-06-10T12:56:10.577Z,66.30
2019-06-10T12:58:37.358Z,68.90
2019-06-10T13:01:08.025Z,68.90
2019-06-10T13:03:37.598Z,68.10
2019-06-10T13:06:09.486Z,69.10
2019-06-10T13:08:39.332Z,70.50
2019-06-10T13:11:08.783Z,71.70
2019-06-10T13:13:38.475Z,72.20
2019-06-10T13:16:09.179Z,73.40
2019-06-10T13:18:38.896Z,76.00
2019-06-10T13:21:13.313Z,75.70
2019-06-10T13:23:39.696Z,80.40
2019-06-10T13:26:15.064Z,83.20
2019-06-10T13:28:43.118Z,88.20
2019-06-10T13:31:12.156Z,89.70
2019-06-10T13:33:42.930Z,91.30
2019-06-10T13:36:12.824Z,91.60
2019-06-10T13:38:42.877Z,92.30
2019-06-10T13:41:12.486Z,93.60
2019-06-10T13:43:43.514Z,94.00
2019-06-10T13:46:13.309Z,94.60
2019-06-10T13:48:43.308Z,95.70
2019-06-10T13:51:15.548Z,96.00
2019-06-10T13:53:46.329Z,95.60
2019-06-10T13:56:37.823Z,95.80
2019-06-10T13:58:46.482Z,96.70
2019-06-10T14:01:21.739Z,95.90
2019-06-10T14:03:47.489Z,96.50
2019-06-10T14:06:33.297Z,97.10
2019-06-10T14:08:47.941Z,98.10
2019-06-10T14:11:18.663Z,97.70
2019-06-10T14:13:48.619Z,97.50
2019-06-10T14:16:18.300Z,98.70
2019-06-10T14:18:48.028Z,99.00
2019-06-10T14:21:18.726Z,99.80
2019-06-10T14:23:48.214Z,99.90
2019-06-10T14:26:25.562Z,99.90
2019-06-10T14:28:48.909Z,99.90
2019-06-10T14:31:38.223Z,99.90
2019-06-10T14:33:50.075Z,99.90
2019-06-10T14:36:22.027Z,99.90
2019-06-10T14:38:50.503Z,99.90
2019-06-10T14:41:25.676Z,99.90
2019-06-10T14:43:53.128Z,99.90
2019-06-10T14:46:23.047Z,99.90
2019-06-10T14:48:53.264Z,99.90
2019-06-10T14:51:23.057Z,99.90
2019-06-10T14:53:52.568Z,99.90
2019-06-10T14:56:23.436Z,99.90
2019-06-10T14:58:53.149Z,99.90
2019-06-10T15:01:25.246Z,99.90
2019-06-10T15:03:54.094Z,99.90
2019-06-10T15:06:23.791Z,99.90
2019-06-10T15:08:53.416Z,99.90
2019-06-10T15:11:25.417Z,99.90
2019-06-10T15:13:54.276Z,99.90
2019-06-10T15:16:23.924Z,99.90
2019-06-10T15:18:54.102Z,99.90
2019-06-10T15:21:23.625Z,99.90
2019-06-10T15:23:53.302Z,99.90
2019-06-10T15:26:23.016Z,99.90
2019-06-10T15:28:52.708Z,99.90
2019-06-10T15:31:22.073Z,99.90
2019-06-10T15:33:52.510Z,99.90
2019-06-10T15:36:22.128Z,99.90
2019-06-10T15:38:52.543Z,99.90
2019-06-10T15:41:24.716Z,99.90
2019-06-10T15:43:53.447Z,99.90
2019-06-10T15:46:22.831Z,99.90
2019-06-10T15:48:54.198Z,99.90
2019-06-10T15:51:25.950Z,99.90
2019-06-10T15:53:54.355Z,99.90
2019-06-10T15:56:37.358Z,99.90
2019-06-10T15:58:54.776Z,99.90
2019-06-10T16:01:26.862Z,99.90
2019-06-10T16:03:55.493Z,99.90
2019-06-10T16:06:24.847Z,99.90
2019-06-10T16:08:54.632Z,99.90
2019-06-10T16:11:26.856Z,99.90
2019-06-10T16:13:55.595Z,99.90
2019-06-10T16:16:24.943Z,99.90
2019-06-10T16:18:54.319Z,99.90
2019-06-10T16:21:23.956Z,99.90
2019-06-10T16:23:53.648Z,99.90
2019-06-10T16:26:26.508Z,99.90
2019-06-10T16:28:54.014Z,99.90
2019-06-10T16:31:27.052Z,99.90
2019-06-10T16:33:54.388Z,99.90
2019-06-10T16:36:26.295Z,99.90
2019-06-10T16:38:54.781Z,99.90
2019-06-10T16:41:26.495Z,99.90
2019-06-10T16:43:55.931Z,99.90
2019-06-10T16:46:25.325Z,99.90
2019-06-10T16:48:54.691Z,99.90
2019-06-10T16:51:24.053Z,99.90
2019-06-10T16:53:53.715Z,99.90
2019-06-10T16:56:25.717Z,99.90
2019-06-10T16:58:54.136Z,99.90
2019-06-10T17:01:26.470Z,99.90
2019-06-10T17:03:54.800Z,99.90
2019-06-10T17:06:25.553Z,99.90
2019-06-10T17:08:55.177Z,99.90
2019-06-10T17:11:27.556Z,99.90
2019-06-10T17:13:55.593Z,99.90
2019-06-10T17:16:27.303Z,99.90
2019-06-10T17:18:56.571Z,99.90
2019-06-10T17:21:30.373Z,99.90
2019-06-10T17:23:57.708Z,99.90
2019-06-10T17:26:30.585Z,99.90
2019-06-10T17:28:58.130Z,99.90
2019-06-10T17:31:30.427Z,99.90
2019-06-10T17:33:58.750Z,99.90
2019-06-10T17:36:30.830Z,98.80
2019-06-10T17:38:59.174Z,98.80
2019-06-10T17:41:30.283Z,99.40
2019-06-10T17:44:02.505Z,99.90
2019-06-10T17:46:32.677Z,98.90
2019-06-10T17:49:02.607Z,98.20
2019-06-10T17:51:35.547Z,97.40
2019-06-10T17:54:03.995Z,97.40
2019-06-10T17:56:35.978Z,97.60
2019-06-10T17:59:04.388Z,98.60
2019-06-10T18:01:35.258Z,99.50
2019-06-10T18:04:04.814Z,99.90
2019-06-10T18:06:36.257Z,99.90
2019-06-10T18:09:08.227Z,99.90
2019-06-10T18:11:37.717Z,99.90
2019-06-10T18:14:07.072Z,99.90
2019-06-10T18:16:36.782Z,99.90
2019-06-10T18:19:06.241Z,99.90
2019-06-10T18:21:36.437Z,99.90
2019-06-10T18:24:08.377Z,99.90
2019-06-10T18:26:37.923Z,99.90
2019-06-10T18:29:09.343Z,99.90
2019-06-10T18:31:39.687Z,99.90
2019-06-10T18:34:09.402Z,99.90
2019-06-10T18:36:39.353Z,99.90
2019-06-10T18:39:08.855Z,99.90
2019-06-10T18:41:39.701Z,99.90
2019-06-10T18:44:19.745Z,99.90
2019-06-10T18:46:43.052Z,99.90
2019-06-10T18:49:13.339Z,99.90
2019-06-10T18:51:43.382Z,99.90
2019-06-10T18:54:13.662Z,99.90
2019-06-10T18:56:45.695Z,99.90
2019-06-10T18:59:20.869Z,99.90
2019-06-10T19:01:47.061Z,99.90
2019-06-10T19:04:17.143Z,99.90
2019-06-10T19:06:46.518Z,99.90
2019-06-10T19:09:16.038Z,99.90
2019-06-10T19:11:45.424Z,99.90
2019-06-10T19:14:15.091Z,99.90
2019-06-10T19:16:44.476Z,99.90
2019-06-10T19:19:14.410Z,99.90
2019-06-10T19:21:44.420Z,99.90
2019-06-10T19:24:13.980Z,99.90
2019-06-10T19:26:45.095Z,99.90
2019-06-10T19:29:29.649Z,99.90
2019-06-10T19:31:46.285Z,99.90
2019-06-10T19:34:15.762Z,99.90
2019-06-10T19:36:45.788Z,99.90
2019-06-10T19:39:15.211Z,99.90
2019-06-10T19:41:47.154Z,99.90
2019-06-10T19:44:16.235Z,99.90
2019-06-10T19:46:45.620Z,99.90
2019-06-10T19:49:15.361Z,99.90
2019-06-10T19:51:46.819Z,99.90
2019-06-10T19:54:16.621Z,99.90
2019-06-10T19:56:46.015Z,99.90
2019-06-10T19:59:15.721Z,99.90
2019-06-10T20:01:48.655Z,99.90
2019-06-10T20:04:18.112Z,99.90
2019-06-10T20:06:50.576Z,99.90
2019-06-10T20:09:18.959Z,99.90
2019-06-10T20:11:48.404Z,99.90
2019-06-10T20:14:18.061Z,99.90
2019-06-10T20:16:48.109Z,99.90
2019-06-10T20:19:17.517Z,99.90
2019-06-10T20:21:48.816Z,99.90
2019-06-10T20:24:18.517Z,99.90
2019-06-10T20:26:48.375Z,99.90
2019-06-10T20:29:17.751Z,99.90
2019-06-10T20:31:48.772Z,99.90
2019-06-10T20:34:19.643Z,99.90
2019-06-10T20:36:49.837Z,99.90
2019-06-10T20:39:19.531Z,99.90
2019-06-10T20:41:52.315Z,99.90
2019-06-10T20:44:22.184Z,99.90
2019-06-10T20:46:52.931Z,99.90
2019-06-10T20:49:22.660Z,99.90
2019-06-10T20:52:06.676Z,99.90
2019-06-10T20:54:23.349Z,99.90
2019-06-10T20:56:53.457Z,99.90
2019-06-10T20:59:25.973Z,99.90
2019-06-10T21:01:54.503Z,99.90
2019-06-10T21:04:24.018Z,99.90
2019-06-10T21:06:56.009Z,99.90
2019-06-10T21:09:27.263Z,99.90
2019-06-10T21:11:56.988Z,99.90
2019-06-10T21:14:26.892Z,99.90
2019-06-10T21:16:56.703Z,99.90
2019-06-10T21:19:26.144Z,99.90
2019-06-10T21:21:55.518Z,99.90
2019-06-10T21:24:25.358Z,99.90
2019-06-10T21:26:55.157Z,99.90
2019-06-10T21:29:24.703Z,99.90
2019-06-10T21:31:54.896Z,99.90
2019-06-10T21:34:24.505Z,99.90
2019-06-10T21:36:54.481Z,99.90
2019-06-10T21:39:24.707Z,99.90
2019-06-10T21:41:54.767Z,99.90
2019-06-10T21:44:24.217Z,99.90
2019-06-10T21:46:53.848Z,99.90
2019-06-10T21:49:23.829Z,99.90
2019-06-10T21:51:56.505Z,99.90
2019-06-10T21:54:24.980Z,99.90
2019-06-10T21:56:55.521Z,99.90
2019-06-10T21:59:25.047Z,99.90
2019-06-10T22:01:54.999Z,99.90
2019-06-10T22:04:24.718Z,99.90
2019-06-10T22:06:56.201Z,99.90
2019-06-10T22:09:25.885Z,99.90
2019-06-10T22:11:55.867Z,99.90
2019-06-10T22:14:25.802Z,99.90
2019-06-10T22:16:56.543Z,99.90
2019-06-10T22:19:26.735Z,99.90
2019-06-10T22:21:56.764Z,99.90
2019-06-10T22:24:26.293Z,99.90
2019-06-10T22:26:55.733Z,99.90
2019-06-10T22:29:25.596Z,99.90
2019-06-10T22:31:55.728Z,99.90
2019-06-10T22:34:26.063Z,99.90
2019-06-10T22:36:57.421Z,99.90
2019-06-10T22:39:26.531Z,99.90
2019-06-10T22:41:57.023Z,99.90
2019-06-10T22:44:26.619Z,99.90
2019-06-10T22:46:57.238Z,99.90
2019-06-10T22:49:26.944Z,99.90
2019-06-10T22:51:58.480Z,99.90
2019-06-10T22:54:28.054Z,99.90
2019-06-10T22:56:58.436Z,99.90
2019-06-10T22:59:28.030Z,99.90
2019-06-10T23:01:58.670Z,99.90
2019-06-10T23:04:29.496Z,99.90
2019-06-10T23:06:59.930Z,99.90
2019-06-10T23:09:30.314Z,99.90
2019-06-10T23:11:59.696Z,99.90
2019-06-10T23:14:29.102Z,99.90
2019-06-10T23:17:00.045Z,99.90
2019-06-10T23:19:30.158Z,99.90
2019-06-10T23:22:00.593Z,99.90
2019-06-10T23:24:32.360Z,99.90
2019-06-10T23:27:03.123Z,99.90
2019-06-10T23:29:33.496Z,99.90
2019-06-10T23:32:06.897Z,99.90
2019-06-10T23:34:34.223Z,99.90
2019-06-10T23:37:04.879Z,99.90
2019-06-10T23:39:34.277Z,99.90
2019-06-10T23:42:04.201Z,99.90
2019-06-10T23:44:34.174Z,99.90
2019-06-10T23:47:04.228Z,99.90
2019-06-10T23:49:34.029Z,99.90
2019-06-10T23:52:05.368Z,99.90
2019-06-10T23:54:34.576Z,99.90
2019-06-10T23:57:05.998Z,99.90
2019-06-10T23:59:35.507Z,99.90
